Time;durP1;ratioP1;P1;durP2;ratioP2;P2;SDS_P1;SDS_P2;PMS_P1;PMS_P2;Temp;Humidity;BMP_temperature;BMP_pressure;BME280_temperature;BME280_humidity;BME280_pressure;Samples;Min_cycle;Max_cycle;Signal;HPM_P1;HPM_P2
2021/05/24 00:02:17;;;;;;;1.50;1.03;;;12.80;85.80;;;;;;5012238;28;21192;-76
2021/05/24 00:04:44;;;;;;;1.50;1.00;;;12.70;85.80;;;;;;5014440;28;20484;-78
2021/05/24 00:07:10;;;;;;;1.50;1.00;;;12.70;86.60;;;;;;4996104;28;21219;-77
2021/05/24 00:09:37;;;;;;;1.50;1.00;;;12.80;85.90;;;;;;5008680;28;20487;-76
2021/05/24 00:12:04;;;;;;;1.50;1.10;;;12.70;86.10;;;;;;5008245;28;20483;-77
2021/05/24 00:14:34;;;;;;;1.50;1.00;;;12.70;86.30;;;;;;5014514;28;20484;-76
2021/05/24 00:17:00;;;;;;;1.50;1.00;;;12.70;86.50;;;;;;5008367;28;20566;-77
2021/05/24 00:19:26;;;;;;;1.50;1.03;;;12.70;86.70;;;;;;5009852;28;20464;-78
2021/05/24 00:21:53;;;;;;;1.50;1.00;;;12.70;86.80;;;;;;5008424;28;20475;-77
2021/05/24 00:24:19;;;;;;;1.50;1.00;;;12.70;86.70;;;;;;5014566;28;20470;-76
2021/05/24 00:26:45;;;;;;;1.50;1.00;;;12.70;86.90;;;;;;5006164;28;20564;-77
2021/05/24 00:29:15;;;;;;;1.50;1.00;;;12.70;87.50;;;;;;5015528;28;20516;-79
2021/05/24 00:31:42;;;;;;;1.50;1.00;;;12.70;87.70;;;;;;5004624;28;20537;-75
2021/05/24 00:34:09;;;;;;;1.47;1.00;;;12.60;88.10;;;;;;5013309;28;20483;-77
2021/05/24 00:36:35;;;;;;;1.50;1.00;;;12.60;88.20;;;;;;5007641;28;20915;-77
2021/05/24 00:39:02;;;;;;;1.50;1.17;;;12.60;88.40;;;;;;5014437;28;20463;-79
2021/05/24 00:41:29;;;;;;;1.50;1.00;;;12.60;88.80;;;;;;5005764;28;20482;-77
2021/05/24 00:43:55;;;;;;;1.47;1.00;;;12.60;88.60;;;;;;5015904;28;20464;-77
2021/05/24 00:46:21;;;;;;;1.50;1.00;;;12.60;88.70;;;;;;5001901;28;20485;-76
2021/05/24 00:48:48;;;;;;;1.47;1.00;;;12.60;88.50;;;;;;5018163;28;20544;-77
2021/05/24 00:51:14;;;;;;;1.47;1.00;;;12.60;88.70;;;;;;5002226;28;20520;-77
2021/05/24 00:53:41;;;;;;;1.50;1.10;;;12.60;88.80;;;;;;5018191;28;20465;-77
2021/05/24 00:56:07;;;;;;;1.50;1.00;;;12.60;89.00;;;;;;4999434;28;20487;-78
2021/05/24 00:58:33;;;;;;;1.47;1.00;;;12.50;89.20;;;;;;5017927;28;20460;-77
2021/05/24 01:01:00;;;;;;;1.50;1.00;;;12.50;89.20;;;;;;5000508;28;20848;-76
2021/05/24 01:03:27;;;;;;;1.50;1.00;;;12.50;89.00;;;;;;5013150;28;20496;-77
2021/05/24 01:05:54;;;;;;;1.50;1.10;;;12.50;89.60;;;;;;5001155;28;20847;-76
2021/05/24 01:08:20;;;;;;;1.50;1.00;;;12.50;90.20;;;;;;5020269;28;20779;-76
2021/05/24 01:10:47;;;;;;;1.50;1.00;;;12.50;90.10;;;;;;4997873;28;20471;-77
2021/05/24 01:13:16;;;;;;;1.50;1.10;;;12.50;90.50;;;;;;5021240;28;20487;-78
2021/05/24 01:15:43;;;;;;;1.47;1.00;;;12.40;90.30;;;;;;5008259;28;20583;-76
2021/05/24 01:18:10;;;;;;;1.50;1.00;;;12.50;91.00;;;;;;5011149;28;20488;-78
2021/05/24 01:20:37;;;;;;;1.50;1.10;;;12.40;90.50;;;;;;5008361;28;20456;-76
2021/05/24 01:23:10;;;;;;;1.50;1.10;;;12.40;90.50;;;;;;5012659;28;20483;-76
2021/05/24 01:25:39;;;;;;;1.50;1.03;;;12.40;90.80;;;;;;5006568;28;21041;-76
2021/05/24 01:28:07;;;;;;;1.50;1.10;;;12.40;91.80;;;;;;5014423;28;20490;-76
2021/05/24 01:30:34;;;;;;;1.50;1.00;;;12.40;91.70;;;;;;5007057;28;20473;-77
2021/05/24 01:33:01;;;;;;;1.50;1.10;;;12.40;91.20;;;;;;5000129;28;20855;-77
2021/05/24 01:35:28;;;;;;;1.50;1.00;;;12.30;91.30;;;;;;5010294;28;20483;-76
2021/05/24 01:37:55;;;;;;;1.47;1.00;;;12.30;91.50;;;;;;5010950;28;20491;-76
2021/05/24 01:40:23;;;;;;;1.50;1.10;;;12.30;91.70;;;;;;5007497;28;20496;-78
2021/05/24 01:42:53;;;;;;;1.50;1.00;;;12.30;91.60;;;;;;4998206;28;20753;-76
2021/05/24 01:45:19;;;;;;;1.50;1.10;;;12.20;91.90;;;;;;5011960;28;20480;-76
2021/05/24 01:47:46;;;;;;;1.50;1.10;;;12.20;91.80;;;;;;5012499;28;20533;-76
2021/05/24 01:50:14;;;;;;;1.50;1.10;;;12.20;92.20;;;;;;5011697;28;20488;-76
2021/05/24 01:52:40;;;;;;;1.50;1.00;;;12.20;92.20;;;;;;5013926;28;20901;-75
2021/05/24 01:55:08;;;;;;;1.50;1.13;;;12.20;92.10;;;;;;5011497;28;20483;-73
2021/05/24 01:57:35;;;;;;;1.50;1.10;;;12.20;92.30;;;;;;5016434;28;21078;-77
2021/05/24 02:00:04;;;;;;;1.50;1.00;;;12.20;92.20;;;;;;5012182;28;20464;-76
2021/05/24 02:02:30;;;;;;;1.50;1.10;;;12.20;92.20;;;;;;4997969;28;20489;-77
2021/05/24 02:04:57;;;;;;;1.50;1.00;;;12.20;92.40;;;;;;5009465;28;20488;-77
2021/05/24 02:07:26;;;;;;;1.50;1.00;;;12.20;92.50;;;;;;5013318;28;20483;-76
2021/05/24 02:09:52;;;;;;;1.47;1.00;;;12.20;92.20;;;;;;5013422;28;20578;-76
2021/05/24 02:12:19;;;;;;;1.50;1.00;;;12.30;92.20;;;;;;5011683;28;20487;-75
2021/05/24 02:14:46;;;;;;;1.47;1.00;;;12.30;92.20;;;;;;5012471;28;20488;-74
2021/05/24 02:17:12;;;;;;;1.50;1.10;;;12.30;92.40;;;;;;5001050;28;20487;-77
2021/05/24 02:19:38;;;;;;;1.50;1.00;;;12.30;92.40;;;;;;5009338;28;20498;-77
2021/05/24 02:22:05;;;;;;;1.50;1.03;;;12.30;92.70;;;;;;5009321;28;20494;-77
2021/05/24 02:24:31;;;;;;;1.50;1.00;;;12.30;92.40;;;;;;5013386;28;20468;-77
2021/05/24 02:26:57;;;;;;;1.50;1.00;;;12.30;92.40;;;;;;5002225;28;20924;-78
2021/05/24 02:29:23;;;;;;;1.50;1.10;;;12.30;92.30;;;;;;5010792;28;20487;-76
2021/05/24 02:31:51;;;;;;;1.50;1.10;;;12.20;92.40;;;;;;5008202;28;20478;-77
2021/05/24 02:34:17;;;;;;;1.50;0.90;;;12.20;92.20;;;;;;5016415;28;20474;-78
2021/05/24 02:36:43;;;;;;;1.50;1.00;;;12.20;92.50;;;;;;5008767;28;20501;-76
2021/05/24 02:39:10;;;;;;;1.50;1.30;;;12.20;92.80;;;;;;5016487;28;20475;-76
2021/05/24 02:41:37;;;;;;;1.50;1.10;;;12.20;92.70;;;;;;5001066;28;20491;-77
2021/05/24 02:44:05;;;;;;;1.50;1.10;;;12.10;92.50;;;;;;5008057;28;21154;-76
2021/05/24 02:46:31;;;;;;;1.50;1.00;;;12.10;92.50;;;;;;5010349;28;21009;-78
2021/05/24 02:48:58;;;;;;;1.50;1.10;;;12.10;92.80;;;;;;5017811;28;20494;-79
2021/05/24 02:51:24;;;;;;;1.50;1.10;;;12.10;92.80;;;;;;5007442;28;20498;-77
2021/05/24 02:53:51;;;;;;;1.50;1.00;;;12.10;92.70;;;;;;5017525;28;20804;-76
2021/05/24 02:56:18;;;;;;;1.50;1.10;;;12.10;93.00;;;;;;5003123;28;20483;-77
2021/05/24 02:58:44;;;;;;;1.50;1.00;;;12.10;92.80;;;;;;5019476;28;20461;-76
2021/05/24 03:01:10;;;;;;;1.50;1.00;;;12.10;93.10;;;;;;5003959;28;20498;-76
2021/05/24 03:03:37;;;;;;;1.50;1.10;;;12.10;92.90;;;;;;5020887;28;20460;-78
2021/05/24 03:06:05;;;;;;;1.50;1.00;;;12.10;92.90;;;;;;5004352;28;20480;-77
2021/05/24 03:08:32;;;;;;;1.50;1.10;;;12.10;92.80;;;;;;5020414;28;20514;-76
2021/05/24 03:10:58;;;;;;;1.50;1.00;;;12.10;92.80;;;;;;5004656;28;20496;-78
2021/05/24 03:13:26;;;;;;;1.50;1.00;;;12.10;92.90;;;;;;5025103;28;20504;-76
2021/05/24 03:15:52;;;;;;;1.50;1.00;;;12.10;92.90;;;;;;5000233;28;20484;-74
2021/05/24 03:18:18;;;;;;;1.50;1.10;;;12.20;92.90;;;;;;5022760;28;20541;-76
2021/05/24 03:20:45;;;;;;;1.50;1.00;;;12.20;93.10;;;;;;5011548;28;20468;-75
2021/05/24 03:23:13;;;;;;;1.50;1.00;;;12.20;92.80;;;;;;5027362;28;20478;-76
2021/05/24 03:25:39;;;;;;;1.50;1.10;;;12.20;92.80;;;;;;5011268;28;20499;-77
2021/05/24 03:28:06;;;;;;;1.50;1.10;;;12.20;92.70;;;;;;4996593;28;20540;-76
2021/05/24 03:30:33;;;;;;;1.50;1.00;;;12.20;92.90;;;;;;5011530;28;20484;-78
2021/05/24 03:32:59;;;;;;;1.43;0.93;;;12.20;92.50;;;;;;5014314;28;21111;-76
2021/05/24 03:35:25;;;;;;;1.50;1.00;;;12.20;92.70;;;;;;5011180;28;20488;-78
2021/05/24 03:37:51;;;;;;;1.50;1.20;;;12.30;92.90;;;;;;5012903;28;20808;-77
2021/05/24 03:40:19;;;;;;;1.43;1.00;;;12.30;92.70;;;;;;5007904;28;20548;-77
2021/05/24 03:42:45;;;;;;;1.50;1.10;;;12.30;92.50;;;;;;5012688;28;20686;-77
2021/05/24 03:45:14;;;;;;;1.50;1.00;;;12.30;92.50;;;;;;5008602;28;20505;-77
2021/05/24 03:47:41;;;;;;;1.43;1.00;;;12.30;92.80;;;;;;4997712;28;20492;-78
2021/05/24 03:50:08;;;;;;;1.47;1.00;;;12.40;92.70;;;;;;5011634;28;20492;-77
2021/05/24 03:52:34;;;;;;;1.50;1.10;;;12.40;92.30;;;;;;5013747;28;20487;-77
2021/05/24 03:55:00;;;;;;;1.50;1.00;;;12.40;92.20;;;;;;5012376;28;20490;-77
2021/05/24 03:57:28;;;;;;;1.50;1.10;;;12.50;92.10;;;;;;5010978;28;20515;-78
2021/05/24 03:59:54;;;;;;;1.50;1.10;;;12.50;91.90;;;;;;5011722;28;20460;-76
2021/05/24 04:02:20;;;;;;;1.50;1.00;;;12.50;91.80;;;;;;4998179;28;20493;-75
2021/05/24 04:04:47;;;;;;;1.50;1.10;;;12.50;91.70;;;;;;5008862;28;20487;-77
2021/05/24 04:07:20;;;;;;;1.47;1.00;;;12.60;91.50;;;;;;5011212;28;20558;-77
2021/05/24 04:09:47;;;;;;;1.47;1.00;;;12.60;91.80;;;;;;5012043;28;20566;-74
2021/05/24 04:12:13;;;;;;;1.50;1.00;;;12.60;92.00;;;;;;5007527;28;20480;-76
2021/05/24 04:14:41;;;;;;;1.50;1.00;;;12.60;91.60;;;;;;5011517;28;20495;-77
2021/05/24 04:17:09;;;;;;;1.50;1.00;;;12.60;91.50;;;;;;5000774;28;20925;-77
2021/05/24 04:19:35;;;;;;;1.50;1.00;;;12.70;91.40;;;;;;5009081;28;20465;-78
2021/05/24 04:22:01;;;;;;;1.50;1.00;;;12.70;91.30;;;;;;5004365;28;20477;-78
2021/05/24 04:24:28;;;;;;;1.50;1.00;;;12.70;91.20;;;;;;5007818;28;20463;-76
2021/05/24 04:26:54;;;;;;;1.50;0.93;;;12.70;91.30;;;;;;5008766;28;20483;-78
2021/05/24 04:29:20;;;;;;;1.47;0.97;;;12.70;91.20;;;;;;5016640;28;20491;-76
2021/05/24 04:31:47;;;;;;;1.47;1.03;;;12.70;91.40;;;;;;5003252;28;20878;-76
2021/05/24 04:34:14;;;;;;;1.43;1.00;;;12.80;91.20;;;;;;5012524;28;20480;-77
2021/05/24 04:36:40;;;;;;;1.50;1.00;;;12.80;90.90;;;;;;5007221;28;20794;-77
2021/05/24 04:39:06;;;;;;;1.50;1.00;;;12.80;90.70;;;;;;5016463;28;20465;-77
2021/05/24 04:41:33;;;;;;;1.50;1.07;;;12.80;90.60;;;;;;5004328;28;20489;-76
2021/05/24 04:44:10;;;;;;;1.50;1.10;;;12.90;90.20;;;;;;5013213;28;20464;-76
2021/05/24 04:46:37;;;;;;;1.50;1.03;;;12.90;90.00;;;;;;5001687;28;20495;-78
2021/05/24 04:49:04;;;;;;;1.50;1.03;;;12.90;90.30;;;;;;5018407;28;20480;-77
2021/05/24 04:51:30;;;;;;;1.50;1.00;;;12.90;89.90;;;;;;5005923;28;20490;-77
2021/05/24 04:53:56;;;;;;;1.40;0.90;;;13.00;89.80;;;;;;5016391;28;20460;-76
2021/05/24 04:56:23;;;;;;;1.50;1.10;;;13.00;90.10;;;;;;4996983;28;20489;-77
2021/05/24 04:58:49;;;;;;;1.50;1.03;;;13.10;90.00;;;;;;5005368;28;20456;-77
2021/05/24 05:01:15;;;;;;;1.50;1.00;;;13.10;89.70;;;;;;5004249;28;20508;-77
2021/05/24 05:03:42;;;;;;;1.40;1.00;;;13.20;89.60;;;;;;5019870;28;20556;-77
2021/05/24 05:06:09;;;;;;;1.50;1.00;;;13.20;89.60;;;;;;5004006;28;20490;-77
2021/05/24 05:08:36;;;;;;;1.50;1.20;;;13.30;89.70;;;;;;5017990;28;20460;-78
2021/05/24 05:11:02;;;;;;;1.50;1.00;;;13.40;88.90;;;;;;5002941;28;20463;-76
2021/05/24 05:13:28;;;;;;;1.50;1.10;;;13.50;88.90;;;;;;5022949;28;20529;-77
2021/05/24 05:15:54;;;;;;;1.50;0.97;;;13.60;89.80;;;;;;5004674;28;20488;-78
2021/05/24 05:18:21;;;;;;;1.50;1.00;;;13.80;88.90;;;;;;5024461;28;20878;-77
2021/05/24 05:20:47;;;;;;;1.50;1.00;;;13.90;87.80;;;;;;5004407;28;20467;-78
2021/05/24 05:23:14;;;;;;;1.50;1.00;;;13.90;87.40;;;;;;5024959;28;20475;-77
2021/05/24 05:25:41;;;;;;;1.50;1.10;;;13.90;87.40;;;;;;5009711;28;21108;-77
2021/05/24 05:28:10;;;;;;;1.47;1.00;;;13.80;87.60;;;;;;5015959;28;20866;-77
2021/05/24 05:30:36;;;;;;;1.50;1.00;;;13.70;87.80;;;;;;5014661;28;20638;-77
2021/05/24 05:33:03;;;;;;;1.50;1.00;;;13.80;87.80;;;;;;5018672;28;20479;-77
2021/05/24 05:35:29;;;;;;;1.50;1.03;;;13.80;88.00;;;;;;5014849;28;20484;-76
2021/05/24 05:37:56;;;;;;;1.50;1.00;;;14.00;87.40;;;;;;5018126;28;20489;-76
2021/05/24 05:40:24;;;;;;;1.50;1.00;;;14.10;87.00;;;;;;5010800;28;20468;-77
2021/05/24 05:42:50;;;;;;;1.47;1.00;;;14.10;86.70;;;;;;5014043;28;20573;-77
2021/05/24 05:45:17;;;;;;;1.50;1.00;;;14.10;86.80;;;;;;5008691;28;21003;-75
2021/05/24 05:47:44;;;;;;;1.47;1.00;;;14.20;86.80;;;;;;5011038;28;20514;-78
2021/05/24 05:50:11;;;;;;;1.50;1.10;;;14.20;86.60;;;;;;5008830;28;20487;-78
2021/05/24 05:52:38;;;;;;;1.50;1.00;;;14.40;86.30;;;;;;5012070;28;20483;-77
2021/05/24 05:55:06;;;;;;;1.47;1.00;;;14.70;85.90;;;;;;5007551;28;20492;-76
2021/05/24 05:57:34;;;;;;;1.50;1.00;;;14.90;84.80;;;;;;5012928;28;20490;-77
2021/05/24 06:00:00;;;;;;;1.50;0.90;;;15.10;84.20;;;;;;5010914;28;20452;-77
2021/05/24 06:02:26;;;;;;;1.50;1.00;;;15.30;84.20;;;;;;5032982;22;20504;-77
2021/05/24 06:04:53;;;;;;;1.50;1.00;;;15.60;83.10;;;;;;5028553;28;20472;-77
2021/05/24 06:07:19;;;;;;;1.50;1.00;;;15.80;82.80;;;;;;5024988;28;20561;-76
2021/05/24 06:09:45;;;;;;;1.50;0.90;;;16.00;81.70;;;;;;5030967;28;20540;-78
2021/05/24 06:12:12;;;;;;;1.50;0.90;;;16.20;80.70;;;;;;5013272;28;20479;-75
2021/05/24 06:14:39;;;;;;;1.50;1.00;;;16.30;80.30;;;;;;5028446;28;21012;-77
2021/05/24 06:17:06;;;;;;;1.50;1.00;;;16.40;80.00;;;;;;5025241;28;20510;-78
2021/05/24 06:19:32;;;;;;;1.50;1.00;;;16.70;79.10;;;;;;5033387;28;20616;-77
2021/05/24 06:21:59;;;;;;;1.50;1.00;;;16.70;77.90;;;;;;5022549;28;20904;-77
2021/05/24 06:24:26;;;;;;;1.50;0.90;;;16.80;78.40;;;;;;5030600;28;20520;-77
2021/05/24 06:26:52;;;;;;;1.50;1.00;;;17.00;77.80;;;;;;5024487;28;20473;-77
2021/05/24 06:29:22;;;;;;;1.50;0.90;;;17.20;78.40;;;;;;5022055;23;20528;-79
2021/05/24 06:31:50;;;;;;;1.50;0.97;;;17.30;77.50;;;;;;5000024;28;20483;-78
2021/05/24 06:34:16;;;;;;;2.80;2.17;;;17.50;76.40;;;;;;5008520;28;20516;-77
2021/05/24 06:36:43;;;;;;;1.50;0.90;;;17.70;76.30;;;;;;4985701;28;20480;-75
2021/05/24 06:39:10;;;;;;;1.50;0.90;;;17.70;76.20;;;;;;4993984;28;20463;-76
2021/05/24 06:41:36;;;;;;;1.50;0.90;;;17.60;75.20;;;;;;4988154;28;20531;-79
2021/05/24 06:44:03;;;;;;;1.50;1.00;;;17.70;75.90;;;;;;5002239;28;20449;-76
2021/05/24 06:46:29;;;;;;;1.50;0.93;;;17.80;75.50;;;;;;4980733;28;20521;-77
2021/05/24 06:48:57;;;;;;;1.50;0.93;;;17.90;75.10;;;;;;4994812;28;20469;-76
2021/05/24 06:51:23;;;;;;;1.50;1.00;;;18.00;75.20;;;;;;5012427;23;20483;-77
2021/05/24 06:53:50;;;;;;;1.50;0.90;;;18.10;75.00;;;;;;5025917;28;20475;-78
2021/05/24 06:56:16;;;;;;;1.50;0.90;;;18.20;75.80;;;;;;5006982;28;20495;-77
2021/05/24 06:58:42;;;;;;;1.50;0.90;;;18.40;75.70;;;;;;5020553;28;20468;-78
2021/05/24 07:01:09;;;;;;;1.50;1.00;;;18.60;74.70;;;;;;5008221;28;20487;-78
2021/05/24 07:03:35;;;;;;;1.50;0.90;;;18.50;74.30;;;;;;5024079;28;20472;-77
2021/05/24 07:06:02;;;;;;;1.50;0.90;;;18.70;74.60;;;;;;5004920;28;20828;-77
2021/05/24 07:08:29;;;;;;;1.50;0.90;;;18.80;74.30;;;;;;5024050;28;20522;-78
2021/05/24 07:10:55;;;;;;;1.50;0.93;;;19.10;73.50;;;;;;4997328;28;20546;-78
2021/05/24 07:13:21;;;;;;;1.50;1.00;;;19.30;73.00;;;;;;5007452;28;21727;-79
2021/05/24 07:15:47;;;;;;;1.50;1.00;;;19.50;72.00;;;;;;5002038;28;20516;-79
2021/05/24 07:18:14;;;;;;;1.50;0.90;;;19.70;72.10;;;;;;5020680;28;20904;-79
2021/05/24 07:20:40;;;;;;;1.50;0.90;;;19.90;71.20;;;;;;5010405;28;20848;-77
2021/05/24 07:23:07;;;;;;;1.50;0.90;;;20.10;70.30;;;;;;5013251;28;20488;-77
2021/05/24 07:25:36;;;;;;;1.50;0.90;;;20.10;70.00;;;;;;5011885;28;21022;-78
2021/05/24 07:28:03;;;;;;;1.50;0.90;;;20.20;70.20;;;;;;5019846;28;20483;-78
2021/05/24 07:30:29;;;;;;;1.50;0.90;;;20.30;70.00;;;;;;5014099;28;20511;-78
2021/05/24 07:32:56;;;;;;;1.50;0.90;;;20.30;70.10;;;;;;5017398;28;20487;-77
2021/05/24 07:35:22;;;;;;;1.50;0.90;;;20.40;69.60;;;;;;5010235;28;20872;-77
2021/05/24 07:37:48;;;;;;;1.50;0.90;;;20.50;69.70;;;;;;5016169;28;20517;-78
2021/05/24 07:40:16;;;;;;;1.47;0.90;;;20.50;69.70;;;;;;5013376;28;20472;-78
2021/05/24 07:42:45;;;;;;;1.50;0.90;;;20.50;69.50;;;;;;5018878;28;20495;-78
2021/05/24 07:45:11;;;;;;;1.50;0.90;;;20.40;69.60;;;;;;5012349;28;20503;-75
2021/05/24 07:47:38;;;;;;;1.47;0.90;;;20.60;70.10;;;;;;5000178;28;20484;-77
2021/05/24 07:50:06;;;;;;;1.50;0.90;;;20.50;69.80;;;;;;5011812;28;20499;-76
2021/05/24 07:52:33;;;;;;;1.50;0.90;;;20.60;69.80;;;;;;5013713;28;20537;-79
2021/05/24 07:55:01;;;;;;;1.50;1.00;;;20.90;69.20;;;;;;5012242;28;20495;-78
2021/05/24 07:57:28;;;;;;;1.50;0.90;;;21.00;68.90;;;;;;5011767;28;20793;-77
2021/05/24 07:59:56;;;;;;;1.47;0.90;;;21.20;68.60;;;;;;5009386;28;20556;-76
2021/05/24 08:02:23;;;;;;;1.50;0.90;;;21.30;68.40;;;;;;4984955;28;21041;-77
2021/05/24 08:04:50;;;;;;;1.50;0.90;;;21.40;67.90;;;;;;5007384;28;20935;-79
2021/05/24 08:07:17;;;;;;;1.50;1.00;;;21.20;68.00;;;;;;5010681;28;20496;-79
2021/05/24 08:09:43;;;;;;;1.50;0.90;;;21.00;68.60;;;;;;5009295;28;20488;-76
2021/05/24 08:12:12;;;;;;;1.50;0.90;;;20.90;68.30;;;;;;5010334;28;20482;-77
2021/05/24 08:14:39;;;;;;;1.50;0.90;;;20.70;69.30;;;;;;5011543;28;20464;-77
2021/05/24 08:17:05;;;;;;;1.47;0.90;;;20.40;69.20;;;;;;5009255;28;20538;-77
2021/05/24 08:19:31;;;;;;;1.50;0.90;;;20.10;70.10;;;;;;5013813;28;20465;-76
2021/05/24 08:21:58;;;;;;;1.50;0.90;;;19.70;70.60;;;;;;5009153;28;20480;-78
2021/05/24 08:24:24;;;;;;;1.50;0.90;;;19.50;71.80;;;;;;5011361;28;20476;-79
2021/05/24 08:26:50;;;;;;;1.50;0.90;;;19.40;72.60;;;;;;5007029;28;20484;-79
2021/05/24 08:29:17;;;;;;;1.50;0.90;;;19.40;72.60;;;;;;5010677;28;21014;-79
2021/05/24 08:31:44;;;;;;;1.50;0.97;;;19.30;72.20;;;;;;5004256;28;20594;-78
2021/05/24 08:34:11;;;;;;;1.50;0.90;;;19.30;72.30;;;;;;5012827;28;20658;-79
2021/05/24 08:36:38;;;;;;;1.50;1.00;;;19.10;72.80;;;;;;5001003;28;20495;-78
2021/05/24 08:39:06;;;;;;;6.13;2.30;;;19.00;73.30;;;;;;5012244;28;20479;-80
2021/05/24 08:41:33;;;;;;;1.50;0.90;;;19.00;74.20;;;;;;5004225;28;20799;-77
2021/05/24 08:43:59;;;;;;;1.50;0.90;;;18.90;73.90;;;;;;5016554;28;20472;-77
2021/05/24 08:46:26;;;;;;;1.50;0.90;;;18.90;74.10;;;;;;4999279;28;21035;-77
2021/05/24 08:48:54;;;;;;;1.50;0.90;;;18.80;73.60;;;;;;5007106;28;20472;-77
2021/05/24 08:51:21;;;;;;;1.47;0.90;;;18.70;74.20;;;;;;5001010;28;20509;-77
2021/05/24 08:53:47;;;;;;;1.50;1.00;;;18.70;74.30;;;;;;5018428;28;20559;-77
2021/05/24 08:56:14;;;;;;;1.50;0.93;;;18.70;74.30;;;;;;5003031;28;20479;-77
2021/05/24 08:58:40;;;;;;;1.50;0.90;;;18.80;74.30;;;;;;5019790;28;20508;-77
2021/05/24 09:01:07;;;;;;;1.47;0.93;;;18.80;73.60;;;;;;4999298;28;20472;-77
2021/05/24 09:03:35;;;;;;;1.50;0.90;;;18.80;73.70;;;;;;5014788;28;20530;-76
2021/05/24 09:06:07;;;;;;;1.43;0.90;;;18.90;73.50;;;;;;4997844;28;20488;-77
2021/05/24 09:08:37;;;;;;;1.50;1.00;;;18.80;73.10;;;;;;5015444;28;20471;-77
2021/05/24 09:11:04;;;;;;;1.50;0.90;;;18.80;74.00;;;;;;5000458;28;20492;-77
2021/05/24 09:13:32;;;;;;;1.50;0.90;;;18.80;73.50;;;;;;5017894;28;20468;-77
2021/05/24 09:15:59;;;;;;;1.47;0.90;;;18.70;73.20;;;;;;4995518;28;20942;-76
2021/05/24 09:18:25;;;;;;;1.50;0.97;;;18.70;73.30;;;;;;5010033;28;20468;-77
2021/05/24 09:20:52;;;;;;;1.43;0.90;;;18.70;73.40;;;;;;4999307;28;20470;-78
2021/05/24 09:23:23;;;;;;;1.50;0.90;;;18.60;73.40;;;;;;5016435;28;20970;-75
2021/05/24 09:26:04;;;;;;;1.50;0.90;;;18.60;73.60;;;;;;4996489;28;20499;-79
2021/05/24 09:28:34;;;;;;;1.50;1.00;;;18.60;73.80;;;;;;5020423;28;20488;-79
2021/05/24 09:31:02;;;;;;;1.50;0.90;;;18.70;73.60;;;;;;4994509;28;20490;-79
2021/05/24 09:33:29;;;;;;;1.50;0.90;;;18.70;73.60;;;;;;5019538;28;20467;-78
2021/05/24 09:35:56;;;;;;;1.50;0.90;;;18.70;73.80;;;;;;5002643;28;20564;-79
2021/05/24 09:38:24;;;;;;;1.50;0.90;;;18.60;73.40;;;;;;5023459;28;21005;-79
2021/05/24 09:40:56;;;;;;;1.47;0.90;;;18.60;73.10;;;;;;5001249;28;20479;-79
2021/05/24 09:43:37;;;;;;;1.50;1.00;;;18.60;73.20;;;;;;5018715;28;21011;-78
2021/05/24 09:46:18;;;;;;;1.47;0.90;;;18.50;73.70;;;;;;5001709;28;20490;-78
2021/05/24 09:48:47;;;;;;;1.50;1.00;;;18.50;73.90;;;;;;5014228;28;20574;-78
2021/05/24 09:51:15;;;;;;;1.47;0.90;;;18.40;74.20;;;;;;5003263;28;20526;-78
2021/05/24 09:53:55;;;;;;;1.50;0.90;;;18.40;73.90;;;;;;5018431;28;20571;-78
2021/05/24 09:56:23;;;;;;;1.50;1.00;;;18.30;74.40;;;;;;5003637;28;20734;-79
2021/05/24 09:59:06;;;;;;;1.50;0.90;;;18.20;74.60;;;;;;5016913;28;20498;-78
2021/05/24 10:01:37;;;;;;;1.50;0.90;;;18.20;74.90;;;;;;5006934;28;21000;-78
2021/05/24 10:04:05;;;;;;;1.50;1.00;;;18.10;74.50;;;;;;5018570;28;20464;-77
2021/05/24 10:06:31;;;;;;;1.47;0.90;;;18.00;74.80;;;;;;5006724;28;20491;-77
2021/05/24 10:09:00;;;;;;;1.50;0.90;;;18.00;75.40;;;;;;5021275;28;20460;-78
2021/05/24 10:11:28;;;;;;;1.50;0.90;;;18.00;74.60;;;;;;5012493;28;20494;-77
2021/05/24 10:13:55;;;;;;;1.50;0.90;;;18.00;74.70;;;;;;5023301;28;20982;-77
2021/05/24 10:16:23;;;;;;;1.47;0.90;;;18.00;75.40;;;;;;5009402;28;20572;-78
2021/05/24 10:18:50;;;;;;;1.50;0.90;;;18.00;75.40;;;;;;5020795;28;20499;-79
2021/05/24 10:21:16;;;;;;;1.50;1.00;;;18.00;75.50;;;;;;5006326;28;20482;-77
2021/05/24 10:23:43;;;;;;;1.50;0.97;;;18.00;75.50;;;;;;5022556;28;20518;-77
2021/05/24 10:26:12;;;;;;;1.50;0.97;;;18.00;75.80;;;;;;5002512;28;20910;-78
2021/05/24 10:28:39;;;;;;;1.50;1.00;;;18.00;75.70;;;;;;5023513;28;20460;-76
2021/05/24 10:31:17;;;;;;;1.47;0.90;;;18.00;75.70;;;;;;5000930;28;20544;-76
2021/05/24 10:33:45;;;;;;;1.50;1.00;;;17.90;74.80;;;;;;5019611;28;20468;-78
2021/05/24 10:36:17;;;;;;;1.47;0.90;;;17.90;75.50;;;;;;5001629;28;20553;-77
2021/05/24 10:38:43;;;;;;;1.50;0.90;;;18.00;75.30;;;;;;5020744;28;20483;-78
2021/05/24 10:41:13;;;;;;;1.50;0.93;;;18.00;74.80;;;;;;5005450;28;20695;-78
2021/05/24 10:43:44;;;;;;;1.50;0.90;;;18.00;73.20;;;;;;5016414;28;20472;-78
2021/05/24 10:46:33;;;;;;;1.50;0.97;;;17.90;72.60;;;;;;4994936;28;21023;-77
2021/05/24 10:49:15;;;;;;;1.43;0.90;;;18.00;72.60;;;;;;5014814;28;20463;-76
2021/05/24 10:51:54;;;;;;;1.43;0.90;;;18.00;73.00;;;;;;5002346;28;21034;-76
2021/05/24 10:54:29;;;;;;;1.50;0.90;;;18.00;72.90;;;;;;5015019;28;20535;-78
2021/05/24 10:57:23;;;;;;;1.43;0.90;;;18.00;73.70;;;;;;5009818;28;20490;-76
2021/05/24 10:59:54;;;;;;;1.50;1.00;;;18.00;73.70;;;;;;5017364;28;20491;-77
2021/05/24 11:02:35;;;;;;;1.40;0.90;;;17.90;74.40;;;;;;5014095;28;20501;-77
2021/05/24 11:05:07;;;;;;;1.50;1.00;;;17.90;74.20;;;;;;5009710;28;20829;-77
2021/05/24 11:07:35;;;;;;;1.50;1.00;;;17.80;74.30;;;;;;5009166;28;20486;-77
2021/05/24 11:10:24;;;;;;;1.50;1.00;;;17.80;74.90;;;;;;5008780;28;20671;-78
2021/05/24 11:12:53;;;;;;;1.50;1.00;;;17.80;74.40;;;;;;5013633;28;21081;-77
2021/05/24 11:15:20;;;;;;;1.50;0.90;;;17.80;75.00;;;;;;5005423;28;20542;-78
2021/05/24 11:18:36;;;;;;;1.50;1.10;;;17.80;75.10;;;;;;5009290;28;20522;-75
2021/05/24 11:21:17;;;;;;;1.47;0.90;;;17.80;75.80;;;;;;4934838;29;20491;-77
2021/05/24 11:24:05;;;;;;;1.47;0.90;;;17.70;76.80;;;;;;4991347;28;20464;-77
2021/05/24 11:26:33;;;;;;;1.50;0.90;;;17.70;77.20;;;;;;5012879;28;20512;-77
2021/05/24 11:29:06;;;;;;;1.50;0.90;;;17.60;78.20;;;;;;5020216;28;20478;-77
2021/05/24 11:31:49;;;;;;;1.50;1.00;;;17.60;79.60;;;;;;5002978;28;21066;-78
2021/05/24 11:34:35;;;;;;;1.50;0.90;;;17.50;80.40;;;;;;5014437;28;20494;-76
2021/05/24 11:37:04;;;;;;;1.50;0.90;;;17.30;81.10;;;;;;5009264;28;20486;-76
2021/05/24 11:39:38;;;;;;;1.50;1.00;;;17.20;82.10;;;;;;5011659;28;20464;-76
2021/05/24 11:42:07;;;;;;;1.50;1.00;;;17.20;82.20;;;;;;5010565;28;20479;-77
2021/05/24 11:44:37;;;;;;;1.50;0.90;;;17.10;83.20;;;;;;5012044;28;20577;-76
2021/05/24 11:47:06;;;;;;;1.50;0.90;;;17.00;83.50;;;;;;5009358;28;20475;-77
2021/05/24 11:49:38;;;;;;;1.50;0.90;;;16.80;84.80;;;;;;5013692;28;20499;-77
2021/05/24 11:52:06;;;;;;;1.50;0.93;;;16.70;86.80;;;;;;5002504;28;20924;-78
2021/05/24 11:54:33;;;;;;;1.50;1.00;;;16.50;88.10;;;;;;5014603;28;20479;-78
2021/05/24 11:57:01;;;;;;;1.50;0.90;;;16.40;88.60;;;;;;5013882;28;20911;-80
2021/05/24 11:59:29;;;;;;;1.50;0.90;;;16.30;89.30;;;;;;5015148;28;20523;-79
2021/05/24 12:01:58;;;;;;;1.50;1.00;;;16.30;90.30;;;;;;5009035;28;20563;-78
2021/05/24 12:04:28;;;;;;;1.50;1.00;;;16.20;91.40;;;;;;5012514;28;20464;-77
2021/05/24 12:06:59;;;;;;;1.50;1.10;;;16.10;91.90;;;;;;5006683;28;20483;-76
2021/05/24 12:09:35;;;;;;;1.50;0.90;;;16.00;92.10;;;;;;5008858;28;20476;-77
2021/05/24 12:12:04;;;;;;;1.50;1.00;;;16.00;93.10;;;;;;5006993;28;20574;-77
2021/05/24 12:14:33;;;;;;;1.50;0.90;;;15.90;93.70;;;;;;5014522;28;20467;-77
2021/05/24 12:17:00;;;;;;;1.47;0.93;;;15.90;93.70;;;;;;5006071;28;20485;-76
2021/05/24 12:19:27;;;;;;;1.50;1.00;;;15.80;94.10;;;;;;5013946;28;20514;-78
2021/05/24 12:21:57;;;;;;;1.50;1.00;;;15.70;93.70;;;;;;5006525;28;20490;-77
2021/05/24 12:24:23;;;;;;;1.43;0.90;;;15.70;94.50;;;;;;5012655;28;20743;-78
2021/05/24 12:26:52;;;;;;;1.47;0.90;;;15.70;95.00;;;;;;5004913;28;20475;-77
2021/05/24 12:29:22;;;;;;;1.50;1.00;;;15.80;94.90;;;;;;5011355;28;20467;-75
2021/05/24 12:31:50;;;;;;;1.50;1.00;;;15.80;94.90;;;;;;5003655;28;20556;-76
2021/05/24 12:34:25;;;;;;;1.43;0.90;;;15.90;94.70;;;;;;5012246;28;21289;-77
2021/05/24 12:36:55;;;;;;;1.50;1.00;;;15.90;94.70;;;;;;5003914;28;20540;-76
2021/05/24 12:39:23;;;;;;;1.47;0.90;;;15.90;93.90;;;;;;5012621;28;20475;-77
2021/05/24 12:41:51;;;;;;;1.43;0.90;;;16.00;94.00;;;;;;4999062;28;20479;-76
2021/05/24 12:44:23;;;;;;;1.50;1.10;;;16.00;93.10;;;;;;5011407;28;20468;-78
2021/05/24 12:46:50;;;;;;;1.50;1.00;;;16.10;93.40;;;;;;5003047;28;21130;-78
2021/05/24 12:49:20;;;;;;;1.43;1.00;;;16.20;92.40;;;;;;5012438;28;20514;-76
2021/05/24 12:51:56;;;;;;;1.50;1.00;;;16.20;91.60;;;;;;5001545;28;20471;-76
2021/05/24 12:54:22;;;;;;;1.50;1.00;;;16.20;91.00;;;;;;5009009;28;20468;-78